Time;durP1;ratioP1;P1;durP2;ratioP2;P2;SDS_P1;SDS_P2;PMS_P1;PMS_P2;Temp;Humidity;BMP_temperature;BMP_pressure;BME280_temperature;BME280_humidity;BME280_pressure;Samples;Min_cycle;Max_cycle;Signal;HPM_P1;HPM_P2
2022/05/17 00:02:22;;;;;;;6.35;4.60;;;;;;;19.74;55.07;99810.06;4347202;33;35202;-66
2022/05/17 00:04:50;;;;;;;6.07;4.50;;;;;;;19.34;56.07;99804.22;4347229;33;34856;-66
2022/05/17 00:07:18;;;;;;;5.30;3.75;;;;;;;19.65;54.90;99807.19;4347059;33;33125;-66
2022/05/17 00:09:45;;;;;;;6.65;4.57;;;;;;;19.82;53.86;99803.00;4346687;33;33762;-68
2022/05/17 00:12:13;;;;;;;5.85;3.90;;;;;;;19.82;54.14;99797.47;4347120;33;34184;-66
2022/05/17 00:14:41;;;;;;;5.45;3.62;;;;;;;19.77;54.22;99783.84;4347362;33;33768;-66
2022/05/17 00:17:09;;;;;;;4.70;3.85;;;;;;;19.35;55.28;99783.03;4346989;33;34191;-66
2022/05/17 00:19:37;;;;;;;5.18;4.22;;;;;;;19.10;55.60;99781.63;4346820;33;34711;-66
2022/05/17 00:22:05;;;;;;;5.97;3.97;;;;;;;18.96;55.99;99771.44;4347048;33;33691;-69
2022/05/17 00:24:32;;;;;;;6.45;4.22;;;;;;;18.41;58.06;99787.75;4334059;33;33967;-67
2022/05/17 00:27:00;;;;;;;5.03;4.20;;;;;;;19.01;56.69;99781.53;4347164;33;33373;-67
2022/05/17 00:29:28;;;;;;;5.60;3.83;;;;;;;19.52;55.24;99782.41;4347020;33;33845;-66
2022/05/17 00:31:55;;;;;;;6.53;4.50;;;;;;;19.40;55.30;99775.50;4346263;33;34932;-67
2022/05/17 00:34:24;;;;;;;5.90;4.32;;;;;;;19.24;55.96;99786.00;4346769;33;34229;-66
2022/05/17 00:36:52;;;;;;;6.87;4.60;;;;;;;19.04;56.61;99778.16;4346948;33;33613;-66
2022/05/17 00:39:19;;;;;;;6.10;4.22;;;;;;;19.41;55.68;99771.63;4347007;33;34003;-66
2022/05/17 00:41:47;;;;;;;5.72;4.40;;;;;;;19.41;55.46;99779.06;4346665;33;34728;-67
2022/05/17 00:47:04;;;;;;;7.40;4.68;;;;;;;19.40;55.42;99780.19;4346956;33;33631;-66
2022/05/17 00:50:05;;;;;;;7.07;4.47;;;;;;;19.05;56.40;99777.03;4346828;33;34051;-66
2022/05/17 00:52:43;;;;;;;6.53;4.70;;;;;;;19.31;55.81;99771.00;4346854;33;32857;-67
2022/05/17 00:55:20;;;;;;;6.05;4.12;;;;;;;19.37;55.61;99773.37;4346664;33;34615;-67
2022/05/17 00:58:01;;;;;;;7.75;4.43;;;;;;;18.84;57.00;99771.09;4333747;33;33580;-66
2022/05/17 01:00:36;;;;;;;6.30;4.30;;;;;;;19.33;55.76;99768.78;4346500;33;34046;-66
2022/05/17 01:03:07;;;;;;;7.07;4.55;;;;;;;19.27;55.87;99766.13;4346937;33;34200;-67
2022/05/17 01:05:41;;;;;;;7.60;4.75;;;;;;;18.98;56.78;99765.63;4346950;33;33971;-67
2022/05/17 01:08:11;;;;;;;6.00;4.60;;;;;;;19.13;56.43;99759.00;4333514;33;34281;-66
2022/05/17 01:10:38;;;;;;;7.32;4.80;;;;;;;19.14;56.42;99758.72;4332909;33;34480;-67
2022/05/17 01:15:52;;;;;;;5.35;4.10;;;;;;;19.20;56.26;99751.16;4346841;33;33689;-66
2022/05/17 01:18:20;;;;;;;6.85;4.32;;;;;;;19.29;55.86;99754.00;4346342;33;33648;-67
2022/05/17 01:20:48;;;;;;;5.45;4.20;;;;;;;19.33;55.47;99749.50;4346410;33;34206;-67
2022/05/17 01:23:15;;;;;;;6.15;4.40;;;;;;;19.20;55.79;99742.91;4332943;33;35473;-66
2022/05/17 01:25:44;;;;;;;7.35;4.55;;;;;;;19.10;56.17;99752.19;4346538;33;34117;-67
2022/05/17 01:28:18;;;;;;;5.80;4.15;;;;;;;18.73;57.43;99745.72;4346532;33;33078;-67
2022/05/17 01:30:46;;;;;;;;;;;;;;;19.30;55.68;99753.69;4332639;33;34695;-67
2022/05/17 01:33:15;;;;;;;5.47;4.03;;;;;;;19.47;55.18;99762.13;4346551;33;34973;-67
2022/05/17 01:35:43;;;;;;;5.20;4.18;;;;;;;18.95;56.71;99750.53;4346424;33;34189;-67
2022/05/17 01:38:12;;;;;;;6.00;4.15;;;;;;;18.90;56.95;99752.56;4346153;33;33937;-67
2022/05/17 01:40:40;;;;;;;6.22;4.28;;;;;;;18.86;57.09;99752.38;4346148;32;33958;-67
2022/05/17 01:43:08;;;;;;;5.28;4.25;;;;;;;19.02;57.18;99747.38;4346337;33;34937;-73
2022/05/17 01:45:35;;;;;;;7.72;3.90;;;;;;;18.93;57.37;99749.22;4347982;33;34793;-67
2022/05/17 01:48:04;;;;;;;8.00;4.53;;;;;;;18.81;57.67;99744.22;4348226;33;33363;-67
2022/05/17 01:50:31;;;;;;;5.00;3.92;;;;;;;19.29;56.64;99741.06;4347921;33;34737;-67
2022/05/17 01:52:59;;;;;;;5.72;4.37;;;;;;;19.44;56.13;99743.50;4347944;33;34336;-66
2022/05/17 01:55:26;;;;;;;7.55;4.47;;;;;;;19.12;56.97;99740.88;4348106;33;34221;-67
2022/05/17 01:57:54;;;;;;;11.20;4.50;;;;;;;19.36;56.70;99738.72;4348032;33;34414;-63
2022/05/17 02:00:23;;;;;;;6.40;4.60;;;;;;;19.45;56.11;99742.37;4347105;33;33980;-64
2022/05/17 02:02:51;;;;;;;7.00;4.28;;;;;;;19.58;55.79;99743.47;4347394;33;33974;-64
2022/05/17 02:05:21;;;;;;;6.43;4.37;;;;;;;19.64;55.90;99746.94;4347640;33;34386;-65
2022/05/17 02:07:50;;;;;;;5.60;4.05;;;;;;;19.56;56.19;99745.72;4346990;32;34255;-64
2022/05/17 02:10:19;;;;;;;5.47;4.20;;;;;;;19.29;57.18;99749.34;4355473;32;34464;-66
2022/05/17 02:12:47;;;;;;;5.72;4.20;;;;;;;19.37;57.23;99745.03;4362671;32;35664;-67
2022/05/17 02:15:14;;;;;;;6.65;3.92;;;;;;;19.63;56.08;99740.63;4362750;32;34542;-67
2022/05/17 02:17:42;;;;;;;5.97;4.07;;;;;;;19.48;56.54;99735.44;4362548;32;34252;-66
2022/05/17 02:20:12;;;;;;;4.68;4.20;;;;;;;19.25;57.06;99726.31;4362216;32;35200;-67
2022/05/17 02:22:39;;;;;;;5.40;3.90;;;;;;;19.19;57.18;99727.53;4362628;32;34767;-67
2022/05/17 02:25:08;;;;;;;5.72;4.05;;;;;;;19.38;56.69;99730.97;4362630;32;33899;-67
2022/05/17 02:27:37;;;;;;;5.78;4.32;;;;;;;19.61;55.97;99731.03;4362394;32;33767;-67
2022/05/17 02:30:07;;;;;;;5.80;4.07;;;;;;;19.86;55.62;99721.41;4362543;32;33969;-69
2022/05/17 02:32:34;;;;;;;4.75;3.80;;;;;;;19.96;55.09;99726.69;4362281;32;35189;-66
2022/05/17 02:35:03;;;;;;;7.30;4.15;;;;;;;19.90;55.13;99725.16;4362380;32;34837;-67
2022/05/17 02:37:30;;;;;;;5.72;3.75;;;;;;;19.63;55.77;99735.13;4362428;32;34256;-67
2022/05/17 02:39:58;;;;;;;5.72;4.47;;;;;;;19.44;56.57;99732.50;4362341;32;33963;-67
2022/05/17 02:42:25;;;;;;;4.72;3.80;;;;;;;19.09;58.13;99741.47;4362320;32;34316;-66
2022/05/17 02:44:53;;;;;;;5.55;3.95;;;;;;;19.30;57.30;99737.19;4362559;32;34020;-67
2022/05/17 02:47:20;;;;;;;6.62;4.12;;;;;;;19.62;56.52;99735.41;4362425;32;33283;-67
2022/05/17 02:49:48;;;;;;;6.35;4.30;;;;;;;19.75;56.56;99745.59;4362130;32;34001;-68
2022/05/17 02:52:15;;;;;;;6.50;4.03;;;;;;;19.47;57.56;99747.56;4362238;32;34199;-67
2022/05/17 02:54:43;;;;;;;5.47;4.22;;;;;;;19.34;57.92;99751.97;4362452;32;34042;-68
2022/05/17 02:57:11;;;;;;;6.57;4.03;;;;;;;19.36;57.68;99746.97;4361681;32;33496;-66
2022/05/17 02:59:38;;;;;;;5.72;4.07;;;;;;;19.87;56.93;99740.38;4362458;32;34013;-67
2022/05/17 03:02:06;;;;;;;7.00;4.53;;;;;;;19.51;57.64;99740.34;4361995;32;34310;-66
2022/05/17 03:04:34;;;;;;;5.78;4.37;;;;;;;19.64;57.28;99746.94;4362351;32;33699;-68
2022/05/17 03:07:01;;;;;;;7.28;4.12;;;;;;;19.54;57.59;99750.72;4362644;32;33113;-66
2022/05/17 03:09:29;;;;;;;6.25;4.18;;;;;;;19.09;58.44;99772.53;4362496;32;34531;-67
2022/05/17 03:11:57;;;;;;;5.80;4.03;;;;;;;19.32;57.81;99765.22;4361953;32;34039;-67
2022/05/17 03:14:24;;;;;;;6.00;4.40;;;;;;;19.25;58.05;99773.88;4362263;32;34501;-67
2022/05/17 03:16:52;;;;;;;6.05;4.20;;;;;;;20.02;55.41;99775.00;4362385;32;34465;-67
2022/05/17 03:19:20;;;;;;;6.35;4.82;;;;;;;19.55;56.43;99771.63;4362350;32;33667;-66
2022/05/17 03:21:48;;;;;;;5.00;3.62;;;;;;;19.70;56.12;99766.91;4361866;32;34204;-68
2022/05/17 03:24:15;;;;;;;6.20;4.40;;;;;;;19.81;55.67;99771.09;4362425;32;33902;-66
2022/05/17 03:27:04;;;;;;;6.70;4.18;;;;;;;19.61;56.26;99769.53;4362363;32;33710;-66
2022/05/17 03:29:31;;;;;;;8.88;4.53;;;;;;;20.10;54.81;99772.63;4362306;32;33695;-67
2022/05/17 03:31:59;;;;;;;5.65;3.70;;;;;;;20.39;53.17;99775.78;4361942;32;34127;-66
2022/05/17 03:34:27;;;;;;;5.50;3.80;;;;;;;20.34;54.01;99775.06;4362318;32;33496;-67
2022/05/17 03:36:56;;;;;;;6.70;3.92;;;;;;;20.21;54.15;99774.81;4362261;32;34253;-68
2022/05/17 03:39:23;;;;;;;5.93;4.32;;;;;;;20.41;53.04;99778.19;4362028;32;33947;-68
2022/05/17 03:41:51;;;;;;;7.47;4.37;;;;;;;20.36;53.44;99768.09;4361837;32;34216;-67
2022/05/17 03:44:18;;;;;;;5.60;3.92;;;;;;;20.24;53.44;99776.94;4362608;32;33412;-70
2022/05/17 03:46:46;;;;;;;5.40;3.42;;;;;;;20.11;54.30;99769.56;4362196;32;33522;-68
2022/05/17 03:49:14;;;;;;;6.47;3.80;;;;;;;20.13;54.27;99772.00;4362201;32;34768;-65
2022/05/17 03:51:41;;;;;;;4.62;3.47;;;;;;;20.77;52.40;99766.28;4361919;32;35004;-64
2022/05/17 03:54:09;;;;;;;4.62;3.45;;;;;;;20.92;51.28;99767.81;4362118;32;34070;-66
2022/05/17 03:56:37;;;;;;;6.10;3.92;;;;;;;20.88;51.12;99757.44;4362177;32;34395;-65
2022/05/17 03:59:05;;;;;;;3.90;3.15;;;;;;;20.00;54.00;99760.72;4362184;32;33693;-66
2022/05/17 04:01:32;;;;;;;5.03;3.92;;;;;;;19.97;53.54;99755.81;4361727;32;33974;-68
2022/05/17 04:04:00;;;;;;;5.87;3.67;;;;;;;19.94;53.86;99763.91;4362003;32;34105;-71
2022/05/17 04:06:28;;;;;;;4.70;3.40;;;;;;;20.46;53.32;99762.34;4362123;32;34938;-71
2022/05/17 04:08:55;;;;;;;5.32;3.33;;;;;;;20.93;51.11;99764.75;4361690;32;34725;-72
2022/05/17 04:11:23;;;;;;;4.68;3.22;;;;;;;21.07;50.61;99759.13;4361233;32;35049;-71
2022/05/17 04:13:50;;;;;;;4.50;3.35;;;;;;;21.13;50.63;99760.59;4362258;32;34705;-72
2022/05/17 04:16:19;;;;;;;6.22;3.17;;;;;;;21.24;50.61;99761.12;4348859;32;33332;-71
2022/05/17 04:18:47;;;;;;;4.93;3.37;;;;;;;21.28;50.03;99762.94;4362153;32;33895;-74
2022/05/17 04:21:15;;;;;;;5.10;3.28;;;;;;;21.23;50.35;99765.00;4361335;32;33988;-73
2022/05/17 04:23:42;;;;;;;4.70;3.30;;;;;;;;;;4361845;32;34734;-74
2022/05/17 04:26:10;;;;;;;5.97;3.72;;;;;;;21.45;49.65;99764.97;4362126;32;33812;-73
2022/05/17 04:28:37;;;;;;;6.90;3.40;;;;;;;21.20;50.79;99763.72;4358895;32;33914;-72
2022/05/17 04:31:05;;;;;;;5.22;3.62;;;;;;;21.12;51.07;99750.69;4361264;32;34369;-71
2022/05/17 04:33:33;;;;;;;5.18;3.60;;;;;;;21.10;51.26;99759.31;4361551;32;34516;-72
2022/05/17 04:36:00;;;;;;;6.00;3.72;;;;;;;21.01;51.91;99760.38;4353502;32;33440;-73
2022/05/17 04:38:28;;;;;;;4.12;3.60;;;;;;;20.98;52.52;99761.84;4349892;32;33703;-71
2022/05/17 04:40:56;;;;;;;6.05;3.90;;;;;;;20.55;54.10;99758.84;4360427;32;33921;-73
2022/05/17 04:43:24;;;;;;;5.43;3.50;;;;;;;20.33;54.52;99752.22;4360779;32;34464;-69
2022/05/17 04:45:52;;;;;;;4.85;3.50;;;;;;;20.87;52.34;99752.22;4360322;32;33277;-69
2022/05/17 04:48:20;;;;;;;6.32;3.62;;;;;;;21.06;52.55;99757.50;4360200;32;34105;-69
2022/05/17 04:50:48;;;;;;;5.40;3.75;;;;;;;21.54;52.35;99759.44;4360306;32;34319;-69
2022/05/17 04:53:16;;;;;;;6.57;3.95;;;;;;;21.54;51.40;99759.44;4361170;32;34052;-69
2022/05/17 04:55:44;;;;;;;4.93;3.60;;;;;;;21.62;50.19;99763.34;4360861;32;34577;-69
2022/05/17 04:58:11;;;;;;;7.60;4.03;;;;;;;21.78;49.84;99760.94;4359600;32;34781;-69
2022/05/17 05:00:39;;;;;;;10.57;4.50;;;;;;;21.87;49.42;99765.34;4359439;32;34029;-68
2022/05/17 05:03:07;;;;;;;5.62;4.50;;;;;;;21.67;49.84;99766.78;4357204;32;34116;-70
2022/05/17 05:05:36;;;;;;;8.38;4.10;;;;;;;22.01;48.66;99769.88;4358493;32;33469;-70
2022/05/17 05:08:04;;;;;;;6.70;4.18;;;;;;;21.91;49.09;99771.84;4360254;32;33620;-71
2022/05/17 05:10:32;;;;;;;4.85;3.90;;;;;;;21.78;49.64;99761.75;4346825;32;35012;-71
2022/05/17 05:12:59;;;;;;;7.62;4.53;;;;;;;22.01;48.98;99767.13;4359921;32;34111;-70
2022/05/17 05:15:26;;;;;;;8.68;4.62;;;;;;;21.59;50.46;99758.47;4360423;32;33516;-69
2022/05/17 05:17:54;;;;;;;5.97;3.92;;;;;;;21.66;50.74;99764.34;4359121;32;32415;-73
2022/05/17 05:20:22;;;;;;;7.40;3.92;;;;;;;21.68;51.04;99770.34;4359801;32;34611;-71
2022/05/17 05:22:49;;;;;;;5.45;3.85;;;;;;;21.77;50.54;99773.94;4360407;32;34379;-71
2022/05/17 05:25:17;;;;;;;5.97;4.43;;;;;;;21.73;51.10;99770.22;4360678;32;33349;-72
2022/05/17 05:27:45;;;;;;;8.02;4.53;;;;;;;21.68;52.34;99773.09;4360490;32;34189;-70
2022/05/17 05:30:15;;;;;;;7.57;4.40;;;;;;;21.77;51.73;99775.88;4354573;32;35119;-68
2022/05/17 05:32:43;;;;;;;6.47;4.32;;;;;;;22.10;50.41;99773.47;4359670;32;34636;-69
2022/05/17 05:35:11;;;;;;;7.37;4.93;;;;;;;22.04;50.02;99769.25;4360339;32;33313;-70
2022/05/17 05:37:38;;;;;;;6.53;4.00;;;;;;;21.68;50.64;99768.41;4359326;32;33921;-70
2022/05/17 05:40:09;;;;;;;8.05;4.93;;;;;;;21.91;51.07;99771.84;4349751;32;34352;-69
2022/05/17 05:42:39;;;;;;;6.25;4.62;;;;;;;22.20;49.96;99775.91;4345423;33;34258;-72
2022/05/17 05:45:08;;;;;;;7.60;5.37;;;;;;;21.99;50.90;99778.50;4350231;32;33703;-71
2022/05/17 05:47:36;;;;;;;7.93;4.90;;;;;;;22.26;50.17;99771.06;4360290;32;33476;-70
2022/05/17 05:50:04;;;;;;;8.35;4.85;;;;;;;22.28;50.30;99769.56;4345453;32;33928;-71
2022/05/17 05:52:31;;;;;;;6.90;4.70;;;;;;;22.22;50.70;99773.66;4359979;32;33997;-73
2022/05/17 05:55:00;;;;;;;7.12;5.05;;;;;;;22.16;50.35;99771.34;4359966;32;33696;-71
2022/05/17 05:57:28;;;;;;;6.55;4.90;;;;;;;22.66;48.71;99774.41;4360659;32;33611;-70
2022/05/17 05:59:56;;;;;;;6.53;4.68;;;;;;;22.22;50.50;99779.16;4360320;32;33884;-68
2022/05/17 06:02:23;;;;;;;6.85;4.70;;;;;;;22.63;49.69;99777.00;4359156;32;34016;-69
2022/05/17 06:04:51;;;;;;;8.05;4.53;;;;;;;23.04;49.51;99783.91;4358426;32;33594;-72
2022/05/17 06:07:18;;;;;;;6.15;4.47;;;;;;;22.81;49.40;99778.59;4360608;32;34649;-72
2022/05/17 06:09:46;;;;;;;6.57;4.00;;;;;;;23.15;49.38;99793.47;4359893;32;34290;-72
2022/05/17 06:12:15;;;;;;;7.10;4.37;;;;;;;23.67;48.72;99787.66;4360937;32;33963;-73
2022/05/17 06:14:42;;;;;;;5.68;4.22;;;;;;;23.82;48.02;99797.34;4361493;32;34189;-72
2022/05/17 06:17:10;;;;;;;6.05;3.92;;;;;;;23.82;48.35;99791.81;4360697;32;34808;-73
2022/05/17 06:19:37;;;;;;;5.50;3.47;;;;;;;24.48;46.71;99793.06;4360699;32;34069;-72
2022/05/17 06:22:05;;;;;;;6.65;4.55;;;;;;;24.65;46.69;99786.59;4360698;32;33696;-72
2022/05/17 06:24:33;;;;;;;6.15;3.72;;;;;;;24.07;47.71;99797.53;4347488;32;34127;-72
2022/05/17 06:27:01;;;;;;;5.10;4.10;;;;;;;23.94;48.25;99791.91;4360924;32;34039;-72
2022/05/17 06:29:29;;;;;;;6.47;3.80;;;;;;;24.30;47.11;99798.78;4347951;32;34259;-75
2022/05/17 06:31:56;;;;;;;4.82;3.78;;;;;;;23.89;48.08;99800.41;4348673;32;33289;-75
2022/05/17 06:34:24;;;;;;;5.47;3.78;;;;;;;23.91;49.10;99792.59;4363520;32;33736;-74
2022/05/17 06:36:51;;;;;;;5.28;3.58;;;;;;;24.40;48.08;99800.31;4363149;32;33530;-74
2022/05/17 06:39:20;;;;;;;5.07;3.85;;;;;;;24.63;47.98;99799.97;4362815;32;34216;-74
2022/05/17 06:41:48;;;;;;;4.12;3.35;;;;;;;24.66;47.62;99790.97;4337509;32;32791;-73
2022/05/17 06:44:15;;;;;;;6.07;4.00;;;;;;;25.11;46.31;99802.03;4363327;32;33345;-73
2022/05/17 06:46:44;;;;;;;5.72;3.90;;;;;;;25.11;46.35;99802.03;4362634;32;34027;-73
2022/05/17 06:49:12;;;;;;;4.10;3.30;;;;;;;24.55;47.75;99801.69;4349498;32;33782;-74
2022/05/17 06:51:41;;;;;;;4.07;3.60;;;;;;;25.40;46.10;99813.31;4350099;32;33920;-72
2022/05/17 06:54:09;;;;;;;4.78;3.33;;;;;;;25.48;45.82;99802.06;4363149;32;34636;-72
2022/05/17 06:56:37;;;;;;;4.37;3.37;;;;;;;26.50;43.58;99804.78;4349898;32;33861;-74
2022/05/17 06:59:07;;;;;;;4.82;3.50;;;;;;;25.89;43.91;99811.31;4349499;32;33467;-73
2022/05/17 07:01:49;;;;;;;4.47;3.28;;;;;;;27.10;42.34;99803.97;4338547;32;33369;-75
2022/05/17 07:04:17;;;;;;;3.83;2.85;;;;;;;27.61;41.81;99810.44;4360263;32;33397;-76
2022/05/17 07:06:47;;;;;;;4.00;3.15;;;;;;;26.92;42.00;99801.53;4359278;32;33364;-76
2022/05/17 07:09:14;;;;;;;5.35;3.42;;;;;;;26.75;42.97;99811.03;4361494;32;35265;-77
2022/05/17 07:14:29;;;;;;;5.00;3.05;;;;;;;25.19;45.08;99800.31;4362029;32;33748;-76
2022/05/17 07:16:57;;;;;;;4.07;3.08;;;;;;;25.11;45.41;99796.47;4360415;32;34768;-73
2022/05/17 07:19:24;;;;;;;6.55;3.17;;;;;;;25.07;45.19;99803.87;4361285;32;35240;-72
2022/05/17 07:22:01;;;;;;;4.32;3.12;;;;;;;24.00;47.25;99802.81;4362231;32;34444;-72
2022/05/17 07:24:29;;;;;;;4.07;3.10;;;;;;;23.59;49.17;99801.56;4348141;32;33619;-71
2022/05/17 07:26:57;;;;;;;4.07;3.08;;;;;;;24.53;47.98;99806.75;4348627;32;34027;-76
2022/05/17 07:29:45;;;;;;;5.43;3.28;;;;;;;24.46;47.93;99806.47;4348558;32;34203;-73
2022/05/17 07:32:13;;;;;;;4.40;3.40;;;;;;;25.26;46.67;99803.34;4347333;33;34124;-71
2022/05/17 07:34:41;;;;;;;3.47;2.83;;;;;;;25.53;45.51;99803.84;4346877;33;33500;-70
2022/05/17 07:37:09;;;;;;;4.20;3.03;;;;;;;24.95;47.62;99820.53;4347290;33;33787;-70
2022/05/17 07:39:37;;;;;;;3.47;2.97;;;;;;;24.65;47.44;99823.44;4353539;32;34308;-70
2022/05/17 07:42:06;;;;;;;4.55;3.17;;;;;;;24.71;47.66;99819.31;4361388;32;34862;-71
2022/05/17 07:44:36;;;;;;;4.12;2.83;;;;;;;24.67;48.49;99823.13;4361813;32;33036;-71
2022/05/17 07:47:05;;;;;;;4.70;3.12;;;;;;;24.54;48.44;99819.50;4361855;32;34896;-73
2022/05/17 07:49:38;;;;;;;5.12;3.08;;;;;;;24.84;49.24;99824.88;4361251;32;34291;-71
2022/05/17 07:52:06;;;;;;;4.22;3.00;;;;;;;25.01;48.08;99816.38;4361453;32;34096;-74
2022/05/17 07:54:37;;;;;;;4.75;3.42;;;;;;;25.46;46.14;99818.28;4361444;32;33466;-71
2022/05/17 07:57:05;;;;;;;4.50;3.33;;;;;;;24.10;49.73;99819.84;4361625;32;34038;-74
2022/05/17 07:59:33;;;;;;;4.05;2.97;;;;;;;24.69;48.89;99821.62;4362876;32;35001;-73
2022/05/17 08:02:01;;;;;;;4.85;3.05;;;;;;;24.03;50.69;99819.53;4349592;32;33993;-72
2022/05/17 08:04:29;;;;;;;4.97;3.20;;;;;;;24.03;50.39;99811.22;4362887;32;33589;-73
2022/05/17 08:06:57;;;;;;;3.78;3.08;;;;;;;24.13;50.29;99821.91;4363004;32;34167;-73
2022/05/17 08:09:25;;;;;;;4.95;3.25;;;;;;;23.47;51.79;99830.78;4362529;32;35011;-73
2022/05/17 08:11:52;;;;;;;4.90;3.75;;;;;;;23.31;52.46;99838.03;4362725;32;34785;-73
2022/05/17 08:14:21;;;;;;;5.80;3.60;;;;;;;22.67;54.39;99825.00;4362687;32;33633;-72
2022/05/17 08:16:48;;;;;;;5.18;3.58;;;;;;;23.26;52.84;99836.25;4362727;32;33929;-71
2022/05/17 08:19:17;;;;;;;4.07;3.40;;;;;;;22.65;54.03;99825.31;4362517;32;35123;-72
2022/05/17 08:21:45;;;;;;;6.45;3.35;;;;;;;22.87;54.81;99829.84;4363051;32;34030;-72
2022/05/17 09:27:07;;;;;;;10.68;5.22;;;;;;;21.44;66.45;99868.19;4558014;27;20106;-68
2022/05/17 09:29:44;;;;;;;6.78;5.12;;;;;;;21.20;68.09;99871.31;4362623;32;33823;-66
2022/05/17 09:32:23;;;;;;;9.98;6.43;;;;;;;21.24;68.56;99866.00;4359315;32;33447;-67
2022/05/17 09:34:59;;;;;;;7.45;5.25;;;;;;;20.86;69.55;99864.50;4371535;32;35089;-66
2022/05/17 09:37:33;;;;;;;8.43;5.90;;;;;;;20.77;71.32;99865.53;4377003;32;33784;-67
2022/05/17 09:40:06;;;;;;;6.60;5.53;;;;;;;20.71;72.05;99856.56;4363881;32;34465;-67
2022/05/17 09:42:58;;;;;;;8.43;6.00;;;;;;;21.11;70.79;99856.66;4363357;32;34845;-65
2022/05/17 09:45:49;;;;;;;9.63;5.80;;;;;;;21.05;69.26;99847.69;4377474;32;34208;-66
2022/05/17 09:54:41;;;;;;;10.23;6.20;;;;;;;20.73;70.34;99851.56;4315720;33;33681;-66
2022/05/17 09:57:13;;;;;;;8.48;6.18;;;;;;;20.62;71.58;99850.19;4366960;32;35094;-65
2022/05/17 09:59:43;;;;;;;7.10;5.37;;;;;;;20.21;73.05;99845.62;4374576;32;33642;-66
2022/05/17 10:02:48;;;;;;;8.85;6.20;;;;;;;19.86;74.07;99845.31;4376705;32;33507;-66
2022/05/17 10:05:35;;;;;;;10.07;5.72;;;;;;;20.37;73.42;99854.38;4316078;32;33858;-66
2022/05/17 10:08:11;;;;;;;6.97;6.03;;;;;;;20.55;71.53;99852.56;4378580;32;34797;-66
2022/05/17 10:10:44;;;;;;;6.68;5.53;;;;;;;20.57;71.82;99845.62;4379001;32;34796;-66
2022/05/17 10:13:18;;;;;;;7.00;5.60;;;;;;;20.48;72.18;99851.03;4364607;32;33759;-66
2022/05/17 10:15:49;;;;;;;8.57;6.05;;;;;;;20.24;71.97;99843.06;4379034;32;34046;-66
2022/05/17 10:18:19;;;;;;;7.95;6.28;;;;;;;20.23;71.20;99846.13;4378558;32;34090;-66
2022/05/17 10:20:49;;;;;;;8.32;6.05;;;;;;;20.81;73.40;99847.25;4378661;32;33866;-66
2022/05/17 10:23:26;;;;;;;7.10;5.43;;;;;;;20.92;69.32;99842.28;4365514;32;34147;-66
2022/05/17 10:25:59;;;;;;;8.73;6.07;;;;;;;20.99;67.75;99845.41;4389106;32;33788;-65
2022/05/17 10:28:30;;;;;;;8.60;5.90;;;;;;;20.79;69.25;99841.22;4393599;32;34009;-65
2022/05/17 10:31:22;;;;;;;7.80;5.85;;;;;;;20.90;71.83;99843.41;4393486;32;34799;-65
2022/05/17 10:33:56;;;;;;;7.53;5.07;;;;;;;21.16;70.68;99839.16;4392697;32;34277;-65
2022/05/17 10:36:44;;;;;;;8.38;5.90;;;;;;;21.29;68.83;99829.97;4393619;32;34636;-66
2022/05/17 10:39:41;;;;;;;8.13;5.22;;;;;;;21.88;68.14;99843.50;4393587;32;34965;-66
2022/05/17 10:42:09;;;;;;;6.37;5.30;;;;;;;22.26;65.87;99843.72;4365175;32;33959;-66
2022/05/17 10:44:40;;;;;;;7.45;5.68;;;;;;;22.02;64.67;99851.63;4393719;32;34222;-66
2022/05/17 10:47:15;;;;;;;7.47;5.57;;;;;;;21.95;65.54;99840.25;4393567;32;33741;-67
2022/05/17 10:49:56;;;;;;;8.57;5.60;;;;;;;22.29;64.95;99848.59;4367668;32;34986;-68
2022/05/17 10:52:46;;;;;;;7.07;5.25;;;;;;;22.13;64.57;99844.66;4352608;32;34233;-69
2022/05/17 10:55:20;;;;;;;7.62;5.57;;;;;;;21.93;64.96;99851.63;4364854;32;33488;-73
2022/05/17 10:58:14;;;;;;;7.75;5.25;;;;;;;21.54;65.31;99845.03;4364984;32;34521;-71
2022/05/17 11:00:46;;;;;;;6.22;5.15;;;;;;;21.28;67.49;99842.94;4378532;32;35067;-68
2022/05/17 11:03:32;;;;;;;7.45;6.03;;;;;;;21.70;64.82;99842.63;4352691;32;34114;-68
2022/05/17 11:06:20;;;;;;;8.43;5.72;;;;;;;21.31;66.21;99844.25;4378727;32;33552;-68
2022/05/17 11:09:02;;;;;;;7.03;5.65;;;;;;;21.86;65.45;99843.00;4375708;32;34070;-69
2022/05/17 11:12:00;;;;;;;8.45;5.40;;;;;;;21.47;65.31;99841.94;4378316;32;34088;-73
2022/05/17 11:14:30;;;;;;;;;;;;;;;21.28;65.41;99833.87;4365577;32;33875;-67
2022/05/17 11:17:13;;;;;;;7.43;5.40;;;;;;;21.86;62.01;99824.47;4364253;32;33863;-67
2022/05/17 11:19:51;;;;;;;7.35;5.43;;;;;;;21.45;65.40;99828.44;4364582;32;34706;-68
2022/05/17 11:22:31;;;;;;;6.75;5.45;;;;;;;20.96;65.53;99824.78;4365148;32;34260;-69
2022/05/17 11:25:13;;;;;;;7.70;5.95;;;;;;;21.18;66.78;99825.87;4352396;32;32360;-69
2022/05/17 11:28:07;;;;;;;8.15;5.62;;;;;;;21.03;68.37;99818.81;4378073;32;33336;-68
2022/05/17 11:30:43;;;;;;;7.12;5.45;;;;;;;21.39;64.91;99817.84;4378364;32;34592;-70
2022/05/17 11:33:30;;;;;;;8.20;5.65;;;;;;;21.34;65.30;99818.81;4374820;32;34978;-68
2022/05/17 11:36:00;;;;;;;8.25;6.20;;;;;;;21.58;66.35;99812.91;4363525;32;34803;-70
2022/05/17 11:38:37;;;;;;;6.85;5.60;;;;;;;22.51;64.45;99808.91;4362921;32;34036;-69
2022/05/17 11:41:08;;;;;;;7.90;5.85;;;;;;;21.96;63.12;99812.28;4377514;32;33873;-69
2022/05/17 11:43:45;;;;;;;8.27;5.20;;;;;;;22.22;63.04;99808.72;4363345;32;34706;-69
2022/05/17 11:46:28;;;;;;;8.32;5.85;;;;;;;22.34;63.03;99808.13;4363623;32;33652;-73
2022/05/17 11:48:58;;;;;;;6.28;5.22;;;;;;;22.41;61.00;99803.72;4376770;32;33157;-68
2022/05/17 11:51:31;;;;;;;7.70;5.15;;;;;;;22.77;60.71;99801.72;4363577;32;33909;-68
2022/05/17 11:54:03;;;;;;;6.95;5.28;;;;;;;22.44;61.51;99802.25;4376633;32;34223;-69
2022/05/17 11:56:38;;;;;;;8.30;5.57;;;;;;;22.51;60.51;99789.56;4351332;32;34278;-68
2022/05/17 11:59:08;;;;;;;;;;;;;;;22.94;61.99;99787.84;4347096;32;32024;-70
2022/05/17 12:01:35;;;;;;;6.37;5.12;;;;;;;22.90;61.97;99795.97;4376954;32;33920;-68
2022/05/17 12:04:21;;;;;;;7.70;5.80;;;;;;;22.79;62.09;99793.91;4376586;32;34288;-68
2022/05/17 12:06:48;;;;;;;7.90;6.10;;;;;;;22.76;61.41;99795.34;4376391;32;34477;-68
2022/05/17 12:09:29;;;;;;;7.37;5.50;;;;;;;23.12;61.49;99788.59;4376990;32;32929;-68
2022/05/17 12:12:23;;;;;;;7.18;5.82;;;;;;;23.45;61.18;99799.03;4363130;32;33678;-68
2022/05/17 12:15:17;;;;;;;7.15;5.97;;;;;;;22.86;62.68;99791.44;4370602;32;34435;-68
2022/05/17 12:17:44;;;;;;;8.07;5.82;;;;;;;23.35;61.68;99783.62;4363192;32;34677;-67
2022/05/17 12:20:40;;;;;;;8.45;5.68;;;;;;;22.83;60.36;99797.63;4377000;32;33358;-69
2022/05/17 12:23:16;;;;;;;6.90;5.75;;;;;;;22.50;59.85;99784.34;4363213;32;33563;-68
2022/05/17 12:26:19;;;;;;;7.07;5.50;;;;;;;22.26;60.63;99791.19;4363290;32;34000;-70
2022/05/17 12:28:52;;;;;;;9.13;6.12;;;;;;;23.01;60.55;99787.34;4347756;32;33461;-68
2022/05/17 12:31:28;;;;;;;7.65;6.40;;;;;;;22.46;60.12;99780.63;4376850;32;33281;-68
2022/05/17 12:33:56;;;;;;;9.30;6.82;;;;;;;23.45;60.16;99782.41;4376478;32;33796;-70
2022/05/17 12:36:29;;;;;;;8.05;6.25;;;;;;;22.85;59.26;99792.56;4376681;32;34995;-69
2022/05/17 12:44:44;;;;;;;9.82;6.43;;;;;;;23.07;59.56;99761.12;4376189;32;33867;-67
2022/05/17 12:47:30;;;;;;;6.55;5.62;;;;;;;23.04;60.11;99781.94;4363234;32;35076;-68
2022/05/17 12:50:06;;;;;;;8.07;5.90;;;;;;;22.49;59.97;99768.91;4363501;32;34205;-69
2022/05/17 12:52:36;;;;;;;7.28;5.93;;;;;;;22.59;59.65;99764.97;4375401;32;166513;-69
2022/05/17 12:55:17;;;;;;;7.55;5.95;;;;;;;22.68;58.14;99763.81;4377090;32;20123;-68
2022/05/17 12:57:46;;;;;;;9.02;6.75;;;;;;;22.58;60.21;99755.06;4362703;32;33797;-67
2022/05/17 13:00:17;;;;;;;7.80;6.40;;;;;;;22.27;60.35;99751.38;4376501;32;33471;-67
2022/05/17 13:02:51;;;;;;;9.63;6.35;;;;;;;22.63;59.16;99758.44;4362804;32;33320;-67
2022/05/17 13:05:40;;;;;;;8.95;6.40;;;;;;;22.22;58.96;99750.69;4362942;32;34216;-69
2022/05/17 13:08:09;;;;;;;7.75;6.00;;;;;;;22.87;58.58;99759.84;4376566;32;33658;-67
2022/05/17 13:10:40;;;;;;;8.35;5.95;;;;;;;21.99;59.92;99755.59;4376213;32;33889;-69
2022/05/17 13:13:19;;;;;;;10.35;5.93;;;;;;;22.51;58.95;99756.38;4362306;32;33974;-67
2022/05/17 13:15:50;;;;;;;8.75;6.35;;;;;;;22.38;57.57;99751.06;4376271;32;34212;-68
2022/05/17 13:18:18;;;;;;;10.77;6.90;;;;;;;22.06;59.15;99750.41;4362752;32;34621;-68